GEG weather

Spokane International Airport
Spokane, Washington, United States

Public forecast

Using degrees Fahrenheit for public forecast. Weather courtesy of forecast.io.

Current aviation weather report (METAR) for Spokane International Airport

Retrieved 2020/01/23 07:00 UTC (24 minutes ago):

KGEG 230700Z 13005KT 1SM R21/P6000FT -RA BR SCT004 OVC015 01/00 A3011

Aviation forecast (TAF) for Spokane International Airport

Retrieved 2020/01/23 06:39 UTC (45 minutes ago):

TAF KGEG 230537Z 2306/2406 14006KT 6SM -RA BR SCT007 OVC015 FM230800 17006KT 1 1/2SM -RA BR SCT003 OVC007 FM231900 20010KT 6SM -RA BR OVC015 FM240300 16008KT 4SM BR OVC007